Time;durP1;ratioP1;P1;durP2;ratioP2;P2;SDS_P1;SDS_P2;PMS_P1;PMS_P2;Temp;Humidity;BMP_temperature;BMP_pressure;BME280_temperature;BME280_humidity;BME280_pressure;Samples;Min_cycle;Max_cycle;Signal;HPM_P1;HPM_P2
2021/10/21 00:00:12;;;;;;;2.03;1.40;;;;;;;;;;4393473;32;20090;-65
2021/10/21 00:02:40;;;;;;;2.22;1.70;;;;;;;;;;4354239;32;20074;-63
2021/10/21 00:05:07;;;;;;;2.70;1.70;;;;;;;;;;4342323;32;20172;-63
2021/10/21 00:07:34;;;;;;;2.60;1.92;;;;;;;;;;4366951;32;20074;-63
2021/10/21 00:10:02;;;;;;;3.12;2.20;;;;;;;;;;4342447;32;20078;-64
2021/10/21 00:12:30;;;;;;;3.00;2.08;;;;;;;;;;4366711;32;20074;-64
2021/10/21 00:14:56;;;;;;;3.12;2.20;;;;;;;;;;4354201;32;20073;-64
2021/10/21 00:17:23;;;;;;;2.75;2.03;;;;;;;;;;4367242;32;20086;-65
2021/10/21 00:19:50;;;;;;;3.10;2.05;;;;;;;;;;4367322;32;20073;-62
2021/10/21 00:22:18;;;;;;;3.60;2.53;;;;;;;;;;4354279;32;20082;-63
2021/10/21 00:24:45;;;;;;;2.85;2.25;;;;;;;;;;4367021;32;20061;-63
2021/10/21 00:27:12;;;;;;;3.50;2.28;;;;;;;;;;4354442;32;20545;-63
2021/10/21 00:29:38;;;;;;;3.62;2.05;;;;;;;;;;4367154;32;20162;-64
2021/10/21 00:32:05;;;;;;;2.42;1.75;;;;;;;;;;4378705;32;20078;-63
2021/10/21 00:34:32;;;;;;;4.03;1.83;;;;;;;;;;4366259;32;20066;-63
2021/10/21 00:36:58;;;;;;;2.60;1.75;;;;;;;;;;4393196;32;20088;-64
2021/10/21 00:39:25;;;;;;;2.40;1.70;;;;;;;;;;4378985;32;20162;-65
2021/10/21 00:41:51;;;;;;;2.10;1.80;;;;;;;;;;4353505;32;20078;-63
2021/10/21 00:44:20;;;;;;;2.70;1.65;;;;;;;;;;4366612;32;20077;-64
2021/10/21 00:46:46;;;;;;;2.37;1.60;;;;;;;;;;4379018;32;20113;-63
2021/10/21 00:49:13;;;;;;;2.12;1.55;;;;;;;;;;4378960;32;20129;-65
2021/10/21 00:51:40;;;;;;;2.08;1.62;;;;;;;;;;4341041;32;20445;-64
2021/10/21 00:54:07;;;;;;;2.65;1.67;;;;;;;;;;4379192;32;20070;-63
2021/10/21 00:56:35;;;;;;;2.47;1.67;;;;;;;;;;4342352;32;20528;-63
2021/10/21 00:59:02;;;;;;;1.73;1.52;;;;;;;;;;4342061;32;20492;-63
2021/10/21 01:01:32;;;;;;;2.22;1.70;;;;;;;;;;4341058;32;20167;-64
2021/10/21 01:03:59;;;;;;;1.83;1.52;;;;;;;;;;4365886;32;20073;-63
2021/10/21 01:06:26;;;;;;;2.72;1.73;;;;;;;;;;4353936;32;20082;-65
2021/10/21 01:08:52;;;;;;;2.47;1.87;;;;;;;;;;4378849;32;20065;-65
2021/10/21 01:11:19;;;;;;;1.70;1.48;;;;;;;;;;4365700;32;20073;-64
2021/10/21 01:13:46;;;;;;;2.37;1.80;;;;;;;;;;4353477;32;20499;-64
2021/10/21 01:16:13;;;;;;;1.95;1.60;;;;;;;;;;4392581;32;20112;-63
2021/10/21 01:18:41;;;;;;;3.53;1.83;;;;;;;;;;4341739;32;20073;-63
2021/10/21 01:23:41;;;;;;;2.28;1.70;;;;;;;;;;3834236;37;20449;-64
2021/10/21 01:26:10;;;;;;;1.95;1.65;;;;;;;;;;4365891;32;20511;-64
2021/10/21 01:28:41;;;;;;;2.12;1.52;;;;;;;;;;4378121;32;20077;-65
2021/10/21 01:31:07;;;;;;;4.07;2.00;;;;;;;;;;4365944;32;20525;-64
2021/10/21 01:33:34;;;;;;;2.17;1.87;;;;;;;;;;4378840;32;20080;-63
2021/10/21 01:36:01;;;;;;;1.52;1.42;;;;;;;;;;4378619;32;20073;-65
2021/10/21 01:38:27;;;;;;;2.47;1.90;;;;;;;;;;4379093;32;20079;-63
2021/10/21 01:40:54;;;;;;;2.17;1.80;;;;;;;;;;4365497;32;20080;-64
2021/10/21 01:43:21;;;;;;;2.12;1.60;;;;;;;;;;4366129;32;20084;-65
2021/10/21 01:45:48;;;;;;;2.35;2.03;;;;;;;;;;4378120;32;20077;-62
2021/10/21 01:48:15;;;;;;;2.33;2.00;;;;;;;;;;4367037;32;20536;-63
2021/10/21 01:50:42;;;;;;;2.37;2.00;;;;;;;;;;4392235;32;20523;-63
2021/10/21 01:53:08;;;;;;;3.42;2.10;;;;;;;;;;4377670;32;20508;-62
2021/10/21 01:55:34;;;;;;;3.12;2.40;;;;;;;;;;4390352;32;20161;-64
2021/10/21 01:58:01;;;;;;;3.70;2.40;;;;;;;;;;4377607;32;20070;-63
2021/10/21 02:00:28;;;;;;;3.15;1.92;;;;;;;;;;4365671;32;20149;-63
2021/10/21 02:02:55;;;;;;;2.45;1.85;;;;;;;;;;4365285;32;20085;-65
2021/10/21 02:05:22;;;;;;;3.78;2.10;;;;;;;;;;4390017;32;20219;-64
2021/10/21 02:07:49;;;;;;;3.72;2.05;;;;;;;;;;4377316;32;20089;-64
2021/10/21 02:12:57;;;;;;;2.57;2.17;;;;;;;;;;3810736;37;20421;-64
2021/10/21 02:15:24;;;;;;;3.12;1.92;;;;;;;;;;4364795;32;20163;-64
2021/10/21 02:17:51;;;;;;;2.60;1.87;;;;;;;;;;4375807;32;20153;-62
2021/10/21 02:20:17;;;;;;;4.18;2.28;;;;;;;;;;4376090;32;20085;-63
2021/10/21 02:22:45;;;;;;;3.05;2.00;;;;;;;;;;4378599;32;20505;-62
2021/10/21 02:25:12;;;;;;;4.47;1.98;;;;;;;;;;4366046;32;20143;-64
2021/10/21 02:27:39;;;;;;;3.47;2.20;;;;;;;;;;4380946;32;20077;-64
2021/10/21 02:30:07;;;;;;;2.85;2.20;;;;;;;;;;4340324;32;20078;-64
2021/10/21 02:32:33;;;;;;;2.47;1.87;;;;;;;;;;4350909;32;20090;-63
2021/10/21 02:35:00;;;;;;;2.62;1.92;;;;;;;;;;4375399;32;20082;-63
2021/10/21 02:37:27;;;;;;;2.33;1.98;;;;;;;;;;4350541;32;20085;-64
2021/10/21 02:39:53;;;;;;;2.83;1.92;;;;;;;;;;4362718;32;20073;-64
2021/10/21 02:42:20;;;;;;;2.85;2.20;;;;;;;;;;4362888;32;20089;-65
2021/10/21 02:44:46;;;;;;;2.42;1.90;;;;;;;;;;4375146;32;20077;-64
2021/10/21 02:47:13;;;;;;;3.62;1.77;;;;;;;;;;4350588;32;20451;-64
2021/10/21 02:49:40;;;;;;;2.47;2.00;;;;;;;;;;4362655;32;20134;-63
2021/10/21 02:52:06;;;;;;;4.25;2.20;;;;;;;;;;4338371;32;20176;-65
2021/10/21 02:54:33;;;;;;;3.33;2.08;;;;;;;;;;4363328;32;20500;-65
2021/10/21 02:57:00;;;;;;;3.33;2.20;;;;;;;;;;4350346;32;20084;-64
2021/10/21 02:59:27;;;;;;;3.50;2.10;;;;;;;;;;4350112;32;20073;-63
2021/10/21 03:01:53;;;;;;;2.53;2.03;;;;;;;;;;4349963;32;20066;-64
2021/10/21 03:04:20;;;;;;;3.08;2.20;;;;;;;;;;4362033;32;20069;-63
2021/10/21 03:06:47;;;;;;;4.62;2.20;;;;;;;;;;4349969;32;20455;-64
2021/10/21 03:09:13;;;;;;;2.53;2.20;;;;;;;;;;4351096;32;20093;-65
2021/10/21 03:11:40;;;;;;;2.60;2.17;;;;;;;;;;4362304;32;20105;-63
2021/10/21 03:14:06;;;;;;;3.45;2.12;;;;;;;;;;4374597;32;20094;-65
2021/10/21 03:16:36;;;;;;;2.45;2.20;;;;;;;;;;4349811;32;20076;-63
2021/10/21 03:19:03;;;;;;;2.53;2.00;;;;;;;;;;4338476;32;20108;-64
2021/10/21 03:21:30;;;;;;;2.60;2.30;;;;;;;;;;4337531;32;20089;-64
2021/10/21 03:23:57;;;;;;;3.67;2.20;;;;;;;;;;4341632;32;20108;-65
2021/10/21 03:26:24;;;;;;;4.12;2.15;;;;;;;;;;4378690;32;20570;-64
2021/10/21 03:28:51;;;;;;;2.20;1.92;;;;;;;;;;4352807;32;20077;-63
2021/10/21 03:31:17;;;;;;;2.20;2.00;;;;;;;;;;4352841;32;20070;-65
2021/10/21 03:33:44;;;;;;;2.08;1.87;;;;;;;;;;4352709;32;20109;-63
2021/10/21 03:36:11;;;;;;;3.35;2.40;;;;;;;;;;4340334;32;20082;-62
2021/10/21 03:38:37;;;;;;;2.92;2.10;;;;;;;;;;4340104;32;20089;-63
2021/10/21 03:41:05;;;;;;;5.57;2.50;;;;;;;;;;4340146;32;20082;-64
2021/10/21 03:43:31;;;;;;;3.75;2.40;;;;;;;;;;4339709;32;20085;-63
2021/10/21 03:45:58;;;;;;;3.83;2.42;;;;;;;;;;4364328;32;20078;-63
2021/10/21 03:48:24;;;;;;;4.20;2.30;;;;;;;;;;4351960;32;20153;-65
2021/10/21 03:50:51;;;;;;;3.45;2.55;;;;;;;;;;4364283;32;20150;-63
2021/10/21 03:53:17;;;;;;;3.28;2.58;;;;;;;;;;4377978;32;20584;-64
2021/10/21 03:55:44;;;;;;;6.22;2.42;;;;;;;;;;4339868;32;20488;-64
2021/10/21 03:58:11;;;;;;;2.50;2.22;;;;;;;;;;4351699;32;20097;-65
2021/10/21 04:00:37;;;;;;;3.53;2.70;;;;;;;;;;4339434;32;20165;-65
2021/10/21 04:03:04;;;;;;;2.83;2.35;;;;;;;;;;4351495;32;20086;-62
2021/10/21 04:05:31;;;;;;;3.30;2.65;;;;;;;;;;4351584;32;20158;-64
2021/10/21 04:07:58;;;;;;;2.83;2.42;;;;;;;;;;4351978;32;20139;-62
2021/10/21 04:10:25;;;;;;;3.05;2.40;;;;;;;;;;4378487;32;20066;-63
2021/10/21 04:12:51;;;;;;;2.87;2.30;;;;;;;;;;4380468;32;20094;-65
2021/10/21 04:15:18;;;;;;;2.53;2.33;;;;;;;;;;4365704;32;20240;-64
2021/10/21 04:17:45;;;;;;;3.50;2.40;;;;;;;;;;4339211;32;20074;-63
2021/10/21 04:20:12;;;;;;;4.10;2.20;;;;;;;;;;4351353;32;20550;-64
2021/10/21 04:22:38;;;;;;;2.87;2.10;;;;;;;;;;4327033;32;20106;-64
2021/10/21 04:25:05;;;;;;;2.92;2.30;;;;;;;;;;4364157;32;20070;-63
2021/10/21 04:27:32;;;;;;;3.00;2.42;;;;;;;;;;4339319;32;20459;-65
2021/10/21 04:29:59;;;;;;;4.75;2.47;;;;;;;;;;4351431;32;20162;-64
2021/10/21 04:32:25;;;;;;;3.95;2.37;;;;;;;;;;4339045;32;20248;-63
2021/10/21 04:34:52;;;;;;;2.92;2.35;;;;;;;;;;4350390;32;20129;-65
2021/10/21 04:37:19;;;;;;;3.58;2.40;;;;;;;;;;4363840;32;20062;-64
2021/10/21 04:39:45;;;;;;;3.53;2.80;;;;;;;;;;4351779;32;20070;-65
2021/10/21 04:42:12;;;;;;;4.82;3.10;;;;;;;;;;4378437;32;20073;-64
2021/10/21 04:44:38;;;;;;;3.22;2.60;;;;;;;;;;4363826;32;20090;-64
2021/10/21 04:47:05;;;;;;;3.72;2.95;;;;;;;;;;4377433;32;20078;-65
2021/10/21 04:49:31;;;;;;;3.58;2.87;;;;;;;;;;4339720;32;20180;-64
2021/10/21 04:51:58;;;;;;;3.60;2.80;;;;;;;;;;4377608;32;20440;-63
2021/10/21 04:54:25;;;;;;;3.85;2.87;;;;;;;;;;4351756;32;20074;-64
2021/10/21 04:56:51;;;;;;;5.60;2.80;;;;;;;;;;4351217;32;20181;-63
2021/10/21 04:59:18;;;;;;;4.15;3.22;;;;;;;;;;4339224;32;20155;-64
2021/10/21 05:01:45;;;;;;;4.43;3.10;;;;;;;;;;4352035;32;20496;-63
2021/10/21 05:04:11;;;;;;;4.62;3.28;;;;;;;;;;4351319;32;20432;-62
2021/10/21 05:06:38;;;;;;;5.75;2.92;;;;;;;;;;4351440;32;20085;-63
2021/10/21 05:09:05;;;;;;;6.82;3.45;;;;;;;;;;4351099;32;20082;-65
2021/10/21 05:13:55;;;;;;;5.35;3.28;;;;;;;;;;3857713;37;20082;-63
2021/10/21 05:16:22;;;;;;;4.97;3.20;;;;;;;;;;4421028;32;20073;-63
2021/10/21 05:18:48;;;;;;;5.35;3.45;;;;;;;;;;4405755;32;20076;-63
2021/10/21 05:21:15;;;;;;;4.87;3.28;;;;;;;;;;4420831;32;20085;-64
2021/10/21 05:23:42;;;;;;;5.28;3.42;;;;;;;;;;4405503;32;20073;-64
2021/10/21 05:26:08;;;;;;;4.93;3.50;;;;;;;;;;4406594;32;20076;-63
2021/10/21 05:28:35;;;;;;;6.00;3.97;;;;;;;;;;4394002;32;20515;-63
2021/10/21 05:31:01;;;;;;;4.90;3.50;;;;;;;;;;4406852;32;20069;-63
2021/10/21 05:33:34;;;;;;;4.62;3.35;;;;;;;;;;4419878;32;20078;-64
2021/10/21 05:36:04;;;;;;;5.00;3.37;;;;;;;;;;4406741;32;20069;-64
2021/10/21 05:38:31;;;;;;;5.78;3.42;;;;;;;;;;4392758;32;20073;-64
2021/10/21 05:40:57;;;;;;;4.70;3.50;;;;;;;;;;4393347;32;20077;-64
2021/10/21 05:43:24;;;;;;;5.00;3.55;;;;;;;;;;4393290;32;20234;-62
2021/10/21 05:45:50;;;;;;;5.30;3.62;;;;;;;;;;4393893;32;20087;-63
2021/10/21 05:48:17;;;;;;;7.15;3.75;;;;;;;;;;4413554;32;20096;-63
2021/10/21 05:50:44;;;;;;;4.18;3.22;;;;;;;;;;4402321;32;20073;-63
2021/10/21 05:53:11;;;;;;;4.80;3.60;;;;;;;;;;4385624;32;20097;-64
2021/10/21 05:55:37;;;;;;;4.53;3.53;;;;;;;;;;4406329;32;20075;-64
2021/10/21 05:58:05;;;;;;;7.00;3.33;;;;;;;;;;4393155;32;20495;-64
2021/10/21 06:00:31;;;;;;;4.35;3.20;;;;;;;;;;4406050;32;20583;-63
2021/10/21 06:02:58;;;;;;;6.20;3.53;;;;;;;;;;4418241;32;20152;-65
2021/10/21 06:08:06;;;;;;;4.23;3.07;;;;;;;;;;3857988;37;20447;-63
2021/10/21 06:10:33;;;;;;;4.82;2.92;;;;;;;;;;4406167;32;20188;-64
2021/10/21 06:13:01;;;;;;;3.25;2.33;;;;;;;;;;4403318;32;20152;-63
2021/10/21 06:15:28;;;;;;;3.92;2.78;;;;;;;;;;4390805;32;20163;-64
2021/10/21 06:17:56;;;;;;;5.03;3.10;;;;;;;;;;4402975;32;20099;-63
2021/10/21 06:20:23;;;;;;;4.62;3.30;;;;;;;;;;4390661;32;20519;-64
2021/10/21 06:22:50;;;;;;;4.10;3.08;;;;;;;;;;4390976;32;20160;-63
2021/10/21 06:25:17;;;;;;;5.43;3.37;;;;;;;;;;4390793;32;20073;-63
2021/10/21 06:27:43;;;;;;;4.40;3.10;;;;;;;;;;4402887;32;20073;-64
2021/10/21 06:30:10;;;;;;;3.90;2.70;;;;;;;;;;4390526;32;20137;-65
2021/10/21 06:32:38;;;;;;;3.10;2.45;;;;;;;;;;4390268;32;20076;-63
2021/10/21 06:35:05;;;;;;;3.35;2.70;;;;;;;;;;4390831;32;20124;-64
2021/10/21 06:37:32;;;;;;;3.25;2.58;;;;;;;;;;4390494;32;20456;-63
2021/10/21 06:39:58;;;;;;;3.85;2.50;;;;;;;;;;4391049;32;20089;-63
2021/10/21 06:42:25;;;;;;;3.83;2.60;;;;;;;;;;4378252;32;20062;-62
2021/10/21 06:44:51;;;;;;;3.90;2.45;;;;;;;;;;4390955;32;20158;-63
2021/10/21 06:47:18;;;;;;;2.67;2.10;;;;;;;;;;4378035;32;20085;-65
2021/10/21 06:49:45;;;;;;;3.35;2.20;;;;;;;;;;4390837;32;20500;-63
2021/10/21 06:52:11;;;;;;;3.55;2.30;;;;;;;;;;4365388;32;20174;-63
2021/10/21 06:54:38;;;;;;;2.75;2.12;;;;;;;;;;4390779;32;20085;-64
2021/10/21 06:57:04;;;;;;;3.70;2.35;;;;;;;;;;4379176;32;20096;-63
2021/10/21 06:59:31;;;;;;;3.15;2.40;;;;;;;;;;4391036;32;20080;-64
2021/10/21 07:01:58;;;;;;;3.08;2.20;;;;;;;;;;4377759;32;20463;-63
2021/10/21 07:04:25;;;;;;;2.87;2.15;;;;;;;;;;4377570;32;20105;-64
2021/10/21 07:06:52;;;;;;;2.20;1.90;;;;;;;;;;4389851;32;20173;-63
2021/10/21 07:09:22;;;;;;;2.67;2.10;;;;;;;;;;4364820;32;20569;-63
2021/10/21 07:11:48;;;;;;;3.05;2.28;;;;;;;;;;4390146;32;20508;-64
2021/10/21 07:14:16;;;;;;;2.72;2.12;;;;;;;;;;4389432;32;20100;-64
2021/10/21 07:16:42;;;;;;;3.22;2.20;;;;;;;;;;4402630;32;20081;-64
2021/10/21 07:19:10;;;;;;;3.05;2.15;;;;;;;;;;4381002;32;20488;-62
2021/10/21 07:21:37;;;;;;;3.60;2.30;;;;;;;;;;4380615;32;20082;-63
2021/10/21 07:24:05;;;;;;;2.80;2.25;;;;;;;;;;4380802;32;20085;-63
2021/10/21 07:26:31;;;;;;;3.67;2.50;;;;;;;;;;4380449;32;20149;-64
2021/10/21 07:29:57;;;;;;;2.90;2.30;;;;;;;;;;3835532;37;20055;-63
2021/10/21 07:32:24;;;;;;;4.03;2.45;;;;;;;;;;4393482;32;20227;-63
2021/10/21 07:34:51;;;;;;;2.70;2.22;;;;;;;;;;4405434;32;20073;-63
2021/10/21 07:37:18;;;;;;;3.10;2.30;;;;;;;;;;4405662;32;20097;-63
2021/10/21 07:39:44;;;;;;;3.75;2.50;;;;;;;;;;4380653;32;20462;-64
2021/10/21 07:42:11;;;;;;;2.87;2.05;;;;;;;;;;4393344;32;20494;-63
2021/10/21 07:44:41;;;;;;;2.10;1.80;;;;;;;;;;4380585;32;20065;-63
2021/10/21 07:47:08;;;;;;;2.40;2.20;;;;;;;;;;4393370;32;20085;-64
2021/10/21 07:52:17;;;;;;;3.40;2.80;;;;;;;;;;3857596;37;20066;-64
2021/10/21 07:54:45;;;;;;;3.97;2.60;;;;;;;;;;4406320;32;20069;-63
2021/10/21 07:57:13;;;;;;;3.10;2.60;;;;;;;;;;4393221;32;20073;-63
2021/10/21 07:59:40;;;;;;;4.03;2.80;;;;;;;;;;4381228;32;20093;-62
2021/10/21 08:02:07;;;;;;;5.03;2.70;;;;;;;;;;4406655;32;20081;-63
2021/10/21 08:04:34;;;;;;;4.65;3.33;;;;;;;;;;4406236;32;20603;-63
2021/10/21 08:07:00;;;;;;;3.97;3.10;;;;;;;;;;4393567;32;20085;-63
2021/10/21 08:09:31;;;;;;;6.20;3.25;;;;;;;;;;4392929;32;20081;-62
2021/10/21 08:12:02;;;;;;;4.75;3.28;;;;;;;;;;4405934;32;20096;-63
2021/10/21 08:14:29;;;;;;;5.15;3.22;;;;;;;;;;4406294;32;20089;-63
2021/10/21 08:16:57;;;;;;;5.68;3.80;;;;;;;;;;4419535;32;20080;-62
2021/10/21 08:19:25;;;;;;;4.97;3.30;;;;;;;;;;4406051;32;20088;-69
2021/10/21 08:21:52;;;;;;;5.03;3.50;;;;;;;;;;4406145;32;20245;-64
2021/10/21 08:24:19;;;;;;;6.35;3.78;;;;;;;;;;4405778;32;20081;-63
2021/10/21 08:26:50;;;;;;;4.82;3.35;;;;;;;;;;4393234;32;20084;-64
2021/10/21 08:29:18;;;;;;;6.03;4.37;;;;;;;;;;4392810;32;20582;-65
2021/10/21 08:31:44;;;;;;;7.75;4.22;;;;;;;;;;4418372;32;20084;-65
2021/10/21 08:34:11;;;;;;;6.80;3.92;;;;;;;;;;4405664;32;20065;-63
2021/10/21 08:36:37;;;;;;;6.37;4.07;;;;;;;;;;4417800;32;20165;-63
2021/10/21 08:39:07;;;;;;;6.18;4.43;;;;;;;;;;4392911;32;20580;-63
2021/10/21 08:41:34;;;;;;;5.87;4.60;;;;;;;;;;4392972;32;20095;-63
2021/10/21 08:44:01;;;;;;;6.10;3.92;;;;;;;;;;4392962;32;20514;-63
2021/10/21 08:46:27;;;;;;;8.07;4.75;;;;;;;;;;4417880;32;20064;-64
2021/10/21 08:48:58;;;;;;;5.65;3.55;;;;;;;;;;4380053;32;20080;-63
2021/10/21 08:51:25;;;;;;;6.80;3.87;;;;;;;;;;4392639;32;20169;-64
2021/10/21 08:53:52;;;;;;;6.75;3.95;;;;;;;;;;4405017;32;20080;-64
2021/10/21 08:56:25;;;;;;;4.70;3.25;;;;;;;;;;4392245;32;20083;-65
2021/10/21 08:58:55;;;;;;;4.72;3.60;;;;;;;;;;4392325;32;20072;-63
2021/10/21 09:01:33;;;;;;;6.30;3.87;;;;;;;;;;4392258;32;20066;-64
2021/10/21 09:04:27;;;;;;;5.30;3.53;;;;;;;;;;4384677;32;20085;-63
2021/10/21 09:09:24;;;;;;;4.50;3.28;;;;;;;;;;4408452;32;20092;-63
2021/10/21 09:12:08;;;;;;;4.65;3.15;;;;;;;;;;4415022;32;20039;-65
2021/10/21 09:14:42;;;;;;;3.97;3.08;;;;;;;;;;4391707;32;20085;-64
2021/10/21 09:17:10;;;;;;;4.47;3.10;;;;;;;;;;4382865;32;20085;-63
2021/10/21 09:19:40;;;;;;;6.43;3.47;;;;;;;;;;4383252;32;20092;-63
2021/10/21 09:22:27;;;;;;;4.37;3.00;;;;;;;;;;4395920;32;20073;-63
2021/10/21 09:24:56;;;;;;;5.05;3.20;;;;;;;;;;4370120;32;20171;-63
2021/10/21 09:27:25;;;;;;;4.22;2.75;;;;;;;;;;4369877;32;20157;-63
2021/10/21 09:29:53;;;;;;;4.40;3.00;;;;;;;;;;4395228;32;20105;-63
2021/10/21 09:32:27;;;;;;;3.80;2.97;;;;;;;;;;4369865;32;20507;-63
2021/10/21 09:34:58;;;;;;;4.70;3.10;;;;;;;;;;4407236;32;20082;-63
2021/10/21 09:37:33;;;;;;;3.45;2.72;;;;;;;;;;4406976;32;20157;-63
2021/10/21 09:40:01;;;;;;;3.83;2.70;;;;;;;;;;4395329;32;20068;-62
2021/10/21 09:42:36;;;;;;;6.95;2.90;;;;;;;;;;4394129;32;20089;-64
2021/10/21 09:45:19;;;;;;;3.12;2.33;;;;;;;;;;4382085;32;20475;-65
2021/10/21 09:47:56;;;;;;;3.10;2.58;;;;;;;;;;4382466;32;20454;-64
2021/10/21 09:50:40;;;;;;;3.08;2.37;;;;;;;;;;4406602;32;20076;-64
2021/10/21 09:53:19;;;;;;;4.50;2.42;;;;;;;;;;4395269;32;20062;-64
2021/10/21 09:56:08;;;;;;;4.28;2.40;;;;;;;;;;4406766;32;20081;-62
2021/10/21 09:58:39;;;;;;;3.45;2.58;;;;;;;;;;4407205;32;20504;-63
2021/10/21 10:01:16;;;;;;;3.70;2.30;;;;;;;;;;4382149;32;20443;-63
2021/10/21 10:03:46;;;;;;;2.72;2.05;;;;;;;;;;4394752;32;20077;-62
2021/10/21 10:06:17;;;;;;;3.42;2.35;;;;;;;;;;4394272;32;20160;-62
2021/10/21 10:08:44;;;;;;;3.17;2.53;;;;;;;;;;4382590;32;20142;-63
2021/10/21 10:11:12;;;;;;;3.30;2.12;;;;;;;;;;4407768;32;20091;-65
2021/10/21 10:13:44;;;;;;;3.30;2.40;;;;;;;;;;4380600;32;20076;-64
2021/10/21 10:16:10;;;;;;;2.95;2.40;;;;;;;;;;4394153;32;20157;-64
2021/10/21 10:18:47;;;;;;;3.30;2.20;;;;;;;;;;4369139;32;20080;-65
2021/10/21 10:21:33;;;;;;;3.62;2.72;;;;;;;;;;4369217;32;20085;-63
2021/10/21 10:24:05;;;;;;;3.17;2.30;;;;;;;;;;4382113;32;20074;-63
2021/10/21 10:26:47;;;;;;;3.33;2.55;;;;;;;;;;4381686;32;20078;-64
2021/10/21 10:29:18;;;;;;;3.05;2.33;;;;;;;;;;4381002;32;20077;-64
2021/10/21 10:31:48;;;;;;;3.53;2.53;;;;;;;;;;4406431;32;20076;-64
2021/10/21 10:34:47;;;;;;;3.92;2.58;;;;;;;;;;4381210;32;20160;-63
2021/10/21 10:37:17;;;;;;;3.00;2.55;;;;;;;;;;4374172;32;20507;-63
2021/10/21 10:39:52;;;;;;;3.37;2.40;;;;;;;;;;4393935;32;20074;-63
2021/10/21 10:42:42;;;;;;;2.90;2.20;;;;;;;;;;4369491;32;20077;-64
2021/10/21 10:45:10;;;;;;;4.25;2.50;;;;;;;;;;4395254;32;20061;-64
2021/10/21 10:47:50;;;;;;;4.12;2.80;;;;;;;;;;4405861;32;20182;-62
2021/10/21 10:50:23;;;;;;;4.43;3.20;;;;;;;;;;4381019;32;20452;-62
2021/10/21 10:53:00;;;;;;;3.53;2.72;;;;;;;;;;4395105;32;20117;-63
2021/10/21 10:55:28;;;;;;;5.65;3.55;;;;;;;;;;4380957;32;20089;-64
2021/10/21 10:57:56;;;;;;;5.55;3.28;;;;;;;;;;4393623;32;20084;-64
2021/10/21 11:00:47;;;;;;;4.70;3.50;;;;;;;;;;4406153;32;20265;-62
2021/10/21 11:03:34;;;;;;;5.03;3.30;;;;;;;;;;4394139;32;20073;-62
2021/10/21 11:06:08;;;;;;;4.95;3.45;;;;;;;;;;4396768;32;20069;-64
2021/10/21 11:08:54;;;;;;;5.87;3.03;;;;;;;;;;4383175;32;20132;-63
2021/10/21 11:11:43;;;;;;;6.10;2.95;;;;;;;;;;4408380;32;20086;-63
2021/10/21 11:14:14;;;;;;;4.72;3.40;;;;;;;;;;4406552;32;20093;-63
2021/10/21 11:16:54;;;;;;;5.60;3.47;;;;;;;;;;4394807;32;20062;-63
2021/10/21 11:19:43;;;;;;;5.18;3.55;;;;;;;;;;4380756;32;20079;-63
2021/10/21 11:22:19;;;;;;;5.10;3.50;;;;;;;;;;4392762;32;20069;-62
2021/10/21 11:24:48;;;;;;;5.50;3.85;;;;;;;;;;4394231;32;20428;-63
2021/10/21 11:27:16;;;;;;;6.30;3.92;;;;;;;;;;4393013;32;20479;-63
2021/10/21 11:29:44;;;;;;;4.35;3.05;;;;;;;;;;4380894;32;20088;-64
2021/10/21 11:32:11;;;;;;;5.97;3.62;;;;;;;;;;4380272;32;20100;-64
2021/10/21 11:34:38;;;;;;;6.60;3.75;;;;;;;;;;4380614;32;20089;-63
2021/10/21 11:37:04;;;;;;;5.20;3.37;;;;;;;;;;4380880;32;20514;-62
2021/10/21 11:39:31;;;;;;;5.50;3.67;;;;;;;;;;4368051;32;20074;-62
2021/10/21 11:42:02;;;;;;;5.68;4.12;;;;;;;;;;4380207;32;20511;-62
2021/10/21 11:44:28;;;;;;;4.32;3.42;;;;;;;;;;4393803;32;20131;-63
2021/10/21 11:47:02;;;;;;;5.85;3.53;;;;;;;;;;4393200;32;20081;-63
2021/10/21 11:49:33;;;;;;;6.03;4.22;;;;;;;;;;4381738;32;20069;-62
2021/10/21 11:52:10;;;;;;;6.28;3.70;;;;;;;;;;4368348;32;20589;-63
2021/10/21 11:54:37;;;;;;;6.93;3.85;;;;;;;;;;4396106;32;20089;-62
2021/10/21 11:57:05;;;;;;;7.25;3.83;;;;;;;;;;4371139;32;20069;-62
2021/10/21 11:59:33;;;;;;;5.57;3.85;;;;;;;;;;4374699;32;20085;-62
2021/10/21 12:02:30;;;;;;;5.45;3.65;;;;;;;;;;4389674;32;20162;-64
2021/10/21 12:04:57;;;;;;;6.75;3.50;;;;;;;;;;4409523;32;20065;-64
2021/10/21 12:07:24;;;;;;;5.68;3.67;;;;;;;;;;4383682;32;20070;-64
2021/10/21 12:09:50;;;;;;;6.07;4.35;;;;;;;;;;4394055;32;20226;-62
2021/10/21 12:12:17;;;;;;;5.85;3.80;;;;;;;;;;4392849;32;20078;-64
2021/10/21 12:14:44;;;;;;;5.97;3.97;;;;;;;;;;4407502;32;20081;-63
2021/10/21 12:17:11;;;;;;;6.10;3.53;;;;;;;;;;4380126;32;20082;-62
2021/10/21 12:19:43;;;;;;;6.85;4.12;;;;;;;;;;4379928;32;20077;-63
2021/10/21 12:22:18;;;;;;;5.97;4.10;;;;;;;;;;4392942;32;20104;-62
2021/10/21 12:24:48;;;;;;;6.53;3.65;;;;;;;;;;4382045;32;20077;-63
2021/10/21 12:27:18;;;;;;;7.87;4.55;;;;;;;;;;4382304;32;20463;-62
2021/10/21 12:29:45;;;;;;;6.75;3.70;;;;;;;;;;4391292;32;20155;-64
2021/10/21 12:32:15;;;;;;;6.22;3.75;;;;;;;;;;4385425;32;20073;-64
2021/10/21 12:34:41;;;;;;;5.50;4.05;;;;;;;;;;4407570;32;20479;-63
2021/10/21 12:37:28;;;;;;;;;;;;;;;;;;;;;
2021/10/21 12:40:08;;;;;;;5.97;4.00;;;;;;;;;;3834395;37;20058;-65
2021/10/21 12:42:35;;;;;;;7.60;4.85;;;;;;;;;;4367495;32;20153;-65
2021/10/21 12:45:01;;;;;;;5.82;3.90;;;;;;;;;;4390524;32;20077;-64
2021/10/21 12:47:37;;;;;;;6.93;4.50;;;;;;;;;;4365433;32;20452;-65
2021/10/21 12:50:10;;;;;;;7.65;4.87;;;;;;;;;;4366462;32;20077;-64
2021/10/21 12:52:45;;;;;;;7.28;3.50;;;;;;;;;;4354472;32;20093;-65
2021/10/21 12:55:22;;;;;;;6.87;4.32;;;;;;;;;;4378258;32;20053;-64
2021/10/21 12:58:09;;;;;;;5.87;4.57;;;;;;;;;;4390865;32;20069;-65
2021/10/21 13:00:36;;;;;;;7.32;4.15;;;;;;;;;;4379282;32;20076;-65
2021/10/21 13:03:10;;;;;;;5.95;3.92;;;;;;;;;;4390418;32;20066;-64
2021/10/21 13:05:37;;;;;;;9.52;4.87;;;;;;;;;;4390219;32;20084;-64
2021/10/21 13:08:07;;;;;;;7.80;4.25;;;;;;;;;;4377830;32;20104;-65
2021/10/21 13:10:34;;;;;;;6.05;4.18;;;;;;;;;;4378439;32;20099;-65
2021/10/21 13:13:00;;;;;;;6.00;4.30;;;;;;;;;;4365396;32;20093;-63
2021/10/21 13:15:27;;;;;;;6.55;4.30;;;;;;;;;;4404487;32;20077;-65
2021/10/21 13:17:54;;;;;;;7.80;4.18;;;;;;;;;;4365565;32;20066;-64
2021/10/21 13:20:22;;;;;;;8.07;4.75;;;;;;;;;;4365258;32;20085;-63
2021/10/21 13:22:48;;;;;;;6.57;4.55;;;;;;;;;;4365601;32;20151;-65
2021/10/21 13:25:15;;;;;;;6.62;4.70;;;;;;;;;;4377687;32;20156;-64
2021/10/21 13:27:41;;;;;;;9.25;5.15;;;;;;;;;;4377954;32;20458;-63
2021/10/21 13:30:08;;;;;;;7.28;5.22;;;;;;;;;;4364833;32;20084;-65
2021/10/21 13:32:35;;;;;;;6.55;4.43;;;;;;;;;;4378044;32;20503;-63
2021/10/21 13:35:03;;;;;;;6.53;4.25;;;;;;;;;;4352837;32;20093;-63
2021/10/21 13:37:30;;;;;;;7.50;4.65;;;;;;;;;;4364312;32;20070;-63
2021/10/21 13:39:57;;;;;;;7.47;4.43;;;;;;;;;;4377650;32;20088;-64
2021/10/21 13:42:24;;;;;;;9.32;5.00;;;;;;;;;;4377572;32;20082;-64
2021/10/21 13:44:50;;;;;;;8.05;5.07;;;;;;;;;;4377330;32;20069;-64
2021/10/21 13:47:17;;;;;;;7.95;4.80;;;;;;;;;;4377492;32;20092;-63
2021/10/21 13:49:44;;;;;;;6.55;4.82;;;;;;;;;;4349132;32;20081;-63
2021/10/21 13:52:11;;;;;;;7.10;4.12;;;;;;;;;;4367469;32;20120;-63
2021/10/21 13:54:38;;;;;;;8.10;4.50;;;;;;;;;;4367217;32;20146;-64
2021/10/21 13:57:05;;;;;;;8.32;5.12;;;;;;;;;;4380051;32;20515;-63
2021/10/21 13:59:32;;;;;;;8.95;4.93;;;;;;;;;;4354920;32;20157;-64
2021/10/21 14:01:59;;;;;;;6.37;4.20;;;;;;;;;;4354805;32;20166;-65
2021/10/21 14:04:25;;;;;;;7.12;4.93;;;;;;;;;;4367591;32;20500;-64
2021/10/21 14:06:52;;;;;;;8.45;5.32;;;;;;;;;;4355542;32;20081;-63
2021/10/21 14:09:18;;;;;;;7.12;5.05;;;;;;;;;;4369464;32;20093;-63
2021/10/21 14:11:45;;;;;;;7.07;5.03;;;;;;;;;;4367165;32;20104;-62
2021/10/21 14:14:12;;;;;;;7.50;4.45;;;;;;;;;;4367156;32;20077;-63
2021/10/21 14:16:39;;;;;;;8.52;5.45;;;;;;;;;;4367315;32;20160;-63
2021/10/21 14:19:05;;;;;;;9.65;5.15;;;;;;;;;;4367096;32;20456;-63
2021/10/21 14:21:32;;;;;;;6.43;4.47;;;;;;;;;;4379429;32;20058;-63
2021/10/21 14:23:59;;;;;;;7.30;5.30;;;;;;;;;;4354789;32;20491;-63
2021/10/21 14:26:26;;;;;;;8.57;5.00;;;;;;;;;;4379835;32;20095;-63
2021/10/21 14:28:52;;;;;;;7.95;4.80;;;;;;;;;;4367486;32;20165;-63
2021/10/21 14:31:19;;;;;;;9.98;5.30;;;;;;;;;;4379523;32;20456;-63
2021/10/21 14:33:45;;;;;;;8.23;5.07;;;;;;;;;;4393202;32;20533;-63
2021/10/21 14:36:12;;;;;;;8.63;4.70;;;;;;;;;;4367387;32;20179;-63
2021/10/21 14:38:39;;;;;;;7.60;5.28;;;;;;;;;;4341749;32;20077;-63
2021/10/21 14:41:06;;;;;;;6.95;4.60;;;;;;;;;;4379343;32;20089;-65
2021/10/21 14:43:33;;;;;;;7.45;4.90;;;;;;;;;;4366608;32;20084;-63
2021/10/21 14:45:59;;;;;;;6.93;4.25;;;;;;;;;;4379227;32;20072;-62
2021/10/21 14:48:26;;;;;;;8.20;4.90;;;;;;;;;;4366822;32;20065;-64
2021/10/21 14:50:53;;;;;;;6.75;4.55;;;;;;;;;;4354226;32;20086;-63
2021/10/21 14:53:19;;;;;;;7.12;5.07;;;;;;;;;;4366899;32;20145;-63
2021/10/21 14:55:46;;;;;;;8.48;5.68;;;;;;;;;;4366294;32;20078;-62
2021/10/21 14:58:13;;;;;;;10.10;4.70;;;;;;;;;;4366559;32;20553;-63
2021/10/21 15:00:41;;;;;;;6.93;4.62;;;;;;;;;;4378905;32;20535;-65
2021/10/21 15:03:08;;;;;;;7.75;5.30;;;;;;;;;;4365532;32;20575;-63
2021/10/21 15:05:43;;;;;;;8.43;4.78;;;;;;;;;;4366540;32;20170;-65
2021/10/21 15:08:24;;;;;;;10.93;5.07;;;;;;;;;;4367671;32;20066;-63